Time;durP1;ratioP1;P1;durP2;ratioP2;P2;SDS_P1;SDS_P2;PMS_P1;PMS_P2;Temp;Humidity;BMP_temperature;BMP_pressure;BME280_temperature;BME280_humidity;BME280_pressure;Samples;Min_cycle;Max_cycle;Signal;HPM_P1;HPM_P2
2021/04/19 00:00:34;;;;;;;17.77;5.57;;;;;;;-143.98;100.00;68091.63;5043262;28;20061;-83
2021/04/19 00:03:00;;;;;;;15.65;5.82;;;;;;;-143.98;100.00;68091.63;5024919;28;20045;-82
2021/04/19 00:05:28;;;;;;;13.93;5.75;;;;;;;-143.98;100.00;68091.63;5025295;28;20087;-82
2021/04/19 00:07:54;;;;;;;12.05;5.88;;;;;;;-143.98;100.00;68091.63;5045940;28;20075;-82
2021/04/19 00:10:23;;;;;;;11.60;6.07;;;;;;;-143.98;100.00;68091.63;5052264;28;20060;-82
2021/04/19 00:12:50;;;;;;;17.42;7.13;;;;;;;-143.98;100.00;68091.63;5053044;28;20071;-82
2021/04/19 00:15:19;;;;;;;14.15;6.95;;;;;;;-143.98;100.00;68091.63;5031899;28;20155;-83
2021/04/19 00:17:45;;;;;;;15.98;6.88;;;;;;;-143.98;100.00;68091.63;5026762;28;20590;-82
2021/04/19 00:20:12;;;;;;;15.45;6.72;;;;;;;-143.98;100.00;68091.63;5042498;28;20064;-82
2021/04/19 00:22:39;;;;;;;15.68;7.25;;;;;;;-143.98;100.00;68091.63;5019128;28;20060;-82
2021/04/19 00:25:07;;;;;;;14.70;6.93;;;;;;;-143.98;100.00;68091.63;5042886;28;20117;-82
2021/04/19 00:27:33;;;;;;;12.27;7.20;;;;;;;-143.98;100.00;68091.63;5025399;28;20429;-82
2021/04/19 00:30:03;;;;;;;14.85;6.82;;;;;;;-143.98;100.00;68091.63;5026314;28;20373;-82
2021/04/19 00:32:33;;;;;;;13.80;7.05;;;;;;;-143.98;100.00;68091.63;5043134;28;20114;-83
2021/04/19 00:35:00;;;;;;;16.58;7.30;;;;;;;-143.98;100.00;68091.63;5043554;28;20064;-82
2021/04/19 00:37:26;;;;;;;19.25;7.10;;;;;;;-143.98;100.00;68091.63;5030530;28;20076;-82
2021/04/19 00:39:53;;;;;;;18.98;7.85;;;;;;;-143.98;100.00;68091.63;5035456;28;20188;-82
2021/04/19 00:42:20;;;;;;;23.60;7.10;;;;;;;-143.98;100.00;68091.63;5047689;28;20057;-82
2021/04/19 00:44:50;;;;;;;14.48;7.07;;;;;;;-143.98;100.00;68091.63;5044411;28;20144;-82
2021/04/19 00:47:16;;;;;;;22.27;7.60;;;;;;;-143.98;100.00;68091.63;5036677;28;20107;-83
2021/04/19 00:49:44;;;;;;;18.85;7.07;;;;;;;-143.98;100.00;68091.63;5026201;28;20095;-83
2021/04/19 00:52:13;;;;;;;16.10;7.45;;;;;;;-143.98;100.00;68091.63;5039332;28;20060;-83
2021/04/19 00:54:59;;;;;;;14.63;7.63;;;;;;;-143.98;100.00;68091.63;5041481;28;20060;-83
2021/04/19 00:57:32;;;;;;;20.35;8.40;;;;;;;-143.98;100.00;68091.63;5054277;28;20064;-83
2021/04/19 00:59:58;;;;;;;15.80;8.18;;;;;;;-143.98;100.00;68091.63;5056299;28;20256;-82
2021/04/19 01:02:24;;;;;;;20.50;8.00;;;;;;;-143.98;100.00;68091.63;5047178;28;20068;-82
2021/04/19 01:04:51;;;;;;;14.48;7.82;;;;;;;-143.98;100.00;68091.63;5029190;28;20053;-81
2021/04/19 01:07:18;;;;;;;19.80;8.57;;;;;;;-143.98;100.00;68091.63;5067511;28;20053;-81
2021/04/19 01:09:48;;;;;;;20.75;8.13;;;;;;;-143.98;100.00;68091.63;5076046;28;20079;-81
2021/04/19 01:12:14;;;;;;;19.90;7.95;;;;;;;-143.98;100.00;68091.63;5050200;28;20065;-81
2021/04/19 01:14:43;;;;;;;24.77;9.32;;;;;;;-143.98;100.00;68091.63;5046704;28;20061;-81
2021/04/19 01:17:14;;;;;;;21.67;8.20;;;;;;;-143.98;100.00;68091.63;5046055;28;20180;-81
2021/04/19 01:19:47;;;;;;;27.30;9.57;;;;;;;-143.98;100.00;68091.63;5046120;28;20076;-81
2021/04/19 01:22:13;;;;;;;19.17;9.07;;;;;;;-143.98;100.00;68091.63;5069709;28;20075;-82
2021/04/19 01:24:42;;;;;;;21.58;9.50;;;;;;;-143.98;100.00;68091.63;5044721;28;20287;-81
2021/04/19 01:27:08;;;;;;;15.00;8.48;;;;;;;-143.98;100.00;68091.63;5061673;28;20072;-80
2021/04/19 01:29:35;;;;;;;17.73;9.02;;;;;;;-143.98;100.00;68091.63;5043584;28;20057;-81
2021/04/19 01:32:02;;;;;;;19.67;9.20;;;;;;;-143.98;100.00;68091.63;5041426;28;20139;-81
2021/04/19 01:34:28;;;;;;;18.67;10.82;;;;;;;-143.98;100.00;68091.63;5041765;28;20461;-81
2021/04/19 01:36:58;;;;;;;25.70;11.75;;;;;;;-143.98;100.00;68091.63;5042250;28;20429;-81
2021/04/19 01:39:29;;;;;;;28.13;13.52;;;;;;;-143.98;100.00;68091.63;5040423;28;20045;-81
2021/04/19 01:41:55;;;;;;;31.42;13.30;;;;;;;-143.98;100.00;68091.63;5025155;28;20052;-81
2021/04/19 01:44:22;;;;;;;30.58;14.75;;;;;;;-143.98;100.00;68091.63;5043926;28;20045;-81
2021/04/19 01:46:51;;;;;;;31.50;14.68;;;;;;;-143.98;100.00;68091.63;5044369;28;20063;-81
2021/04/19 01:49:22;;;;;;;40.58;17.85;;;;;;;-143.98;100.00;68091.63;5042031;28;20057;-82
2021/04/19 01:51:49;;;;;;;26.83;14.60;;;;;;;-143.98;100.00;68091.63;5043056;28;20048;-82
2021/04/19 01:54:15;;;;;;;33.95;18.67;;;;;;;-143.98;100.00;68091.63;5044934;28;20064;-82
2021/04/19 01:56:44;;;;;;;42.30;21.77;;;;;;;-143.98;100.00;68091.63;5043909;28;20075;-82
2021/04/19 01:59:11;;;;;;;36.55;21.63;;;;;;;-143.98;100.00;68091.63;5028130;28;20092;-81
2021/04/19 02:01:48;;;;;;;41.63;22.08;;;;;;;-143.98;100.00;68091.63;5044263;28;20296;-82
2021/04/19 02:04:24;;;;;;;38.25;22.30;;;;;;;-143.98;100.00;68091.63;5027619;28;20104;-82
2021/04/19 02:07:07;;;;;;;45.55;24.05;;;;;;;-143.98;100.00;68091.63;5058771;28;20045;-82
2021/04/19 02:09:37;;;;;;;41.70;24.42;;;;;;;-143.98;100.00;68091.63;5040239;28;20049;-81
2021/04/19 02:12:28;;;;;;;49.83;26.48;;;;;;;-143.98;100.00;68091.63;5064992;28;20053;-81
2021/04/19 02:15:21;;;;;;;52.00;27.80;;;;;;;-143.98;100.00;68091.63;5073375;28;20053;-81
2021/04/19 02:18:15;;;;;;;54.45;31.02;;;;;;;-143.98;100.00;68091.63;5039050;28;20121;-82
2021/04/19 02:20:53;;;;;;;47.53;28.30;;;;;;;-143.98;100.00;68091.63;5033748;28;20198;-82
2021/04/19 02:23:32;;;;;;;50.63;29.67;;;;;;;-143.98;100.00;68091.63;5051482;28;20182;-82
2021/04/19 02:26:08;;;;;;;55.88;30.40;;;;;;;-143.98;100.00;68091.63;5063612;28;20064;-82
2021/04/19 02:28:35;;;;;;;;;;;;;;;-143.98;100.00;68091.63;5063448;28;20132;-81
2021/04/19 02:31:07;;;;;;;57.17;30.27;;;;;;;-143.98;100.00;68091.63;5063442;28;20295;-82
2021/04/19 02:33:38;;;;;;;52.17;28.73;;;;;;;-143.98;100.00;68091.63;5066727;28;20064;-82
2021/04/19 02:36:09;;;;;;;50.90;30.23;;;;;;;-143.98;100.00;68091.63;5067963;28;20078;-80
2021/04/19 02:38:41;;;;;;;55.10;29.27;;;;;;;-143.98;100.00;68091.63;5056564;28;20135;-81
2021/04/19 02:41:10;;;;;;;58.70;29.05;;;;;;;-143.98;100.00;68091.63;5063522;28;20063;-82
2021/04/19 02:43:38;;;;;;;50.80;28.83;;;;;;;-143.98;100.00;68091.63;5064066;28;20056;-82
2021/04/19 02:46:05;;;;;;;45.72;28.90;;;;;;;-143.98;100.00;68091.63;5062667;28;20052;-82
2021/04/19 02:48:32;;;;;;;55.83;30.33;;;;;;;-143.98;100.00;68091.63;5044627;28;20126;-82
2021/04/19 02:51:00;;;;;;;48.85;29.55;;;;;;;-143.98;100.00;68091.63;5044203;28;20052;-82
2021/04/19 02:53:33;;;;;;;60.80;30.63;;;;;;;-143.98;100.00;68091.63;5041476;28;20056;-82
2021/04/19 02:56:01;;;;;;;56.13;31.00;;;;;;;-143.98;100.00;68091.63;5026308;28;20072;-81
2021/04/19 02:58:47;;;;;;;52.30;29.55;;;;;;;-143.98;100.00;68091.63;5043295;28;20118;-83
2021/04/19 03:01:26;;;;;;;57.80;32.10;;;;;;;-143.98;100.00;68091.63;5041099;28;20064;-80
2021/04/19 03:03:57;;;;;;;44.92;27.58;;;;;;;-143.98;100.00;68091.63;5059369;28;20061;-80
2021/04/19 03:06:28;;;;;;;48.63;27.27;;;;;;;-143.98;100.00;68091.63;5041848;28;20049;-80
2021/04/19 03:09:00;;;;;;;46.30;27.60;;;;;;;-143.98;100.00;68091.63;5041723;28;20052;-81
2021/04/19 03:11:54;;;;;;;47.92;26.58;;;;;;;-143.98;100.00;68091.63;5038892;28;20057;-79
2021/04/19 03:14:25;;;;;;;54.78;28.65;;;;;;;-143.98;100.00;68091.63;5038679;28;20084;-79
2021/04/19 03:17:00;;;;;;;53.70;28.35;;;;;;;-143.98;100.00;68091.63;5038112;28;20061;-80
2021/04/19 03:19:27;;;;;;;;;;;;;;;-143.98;100.00;68091.63;5037798;28;20057;-79
2021/04/19 03:21:56;;;;;;;43.10;25.75;;;;;;;-143.98;100.00;68091.63;5054439;28;19925;-79
2021/04/19 03:24:24;;;;;;;46.05;27.23;;;;;;;-143.98;100.00;68091.63;5020542;28;20100;-79
2021/04/19 03:26:52;;;;;;;47.50;27.77;;;;;;;-143.98;100.00;68091.63;5038028;28;20103;-79
2021/04/19 03:29:19;;;;;;;48.75;26.50;;;;;;;-143.98;100.00;68091.63;5035637;28;20053;-79
2021/04/19 03:31:54;;;;;;;55.28;28.92;;;;;;;-143.98;100.00;68091.63;5035541;28;20061;-81
2021/04/19 03:34:27;;;;;;;55.33;30.02;;;;;;;-143.98;100.00;68091.63;5034846;28;20065;-80
2021/04/19 03:37:08;;;;;;;46.55;27.23;;;;;;;-143.98;100.00;68091.63;5033781;28;20057;-80
2021/04/19 03:39:35;;;;;;;54.88;29.05;;;;;;;-143.98;100.00;68091.63;5034823;28;20057;-80
2021/04/19 03:42:19;;;;;;;52.35;29.58;;;;;;;-143.98;100.00;68091.63;5035670;28;20064;-81
2021/04/19 03:44:46;;;;;;;55.75;30.75;;;;;;;-143.98;100.00;68091.63;5035809;28;20057;-80
2021/04/19 03:47:13;;;;;;;57.88;30.45;;;;;;;-143.98;100.00;68091.63;5034628;28;20088;-80
2021/04/19 03:49:45;;;;;;;59.58;30.08;;;;;;;-143.98;100.00;68091.63;5039174;28;20087;-80
2021/04/19 03:52:24;;;;;;;57.90;33.13;;;;;;;-143.98;100.00;68091.63;5054214;28;20084;-80
2021/04/19 03:54:54;;;;;;;60.80;31.70;;;;;;;-143.98;100.00;68091.63;5039062;28;20049;-80
2021/04/19 03:57:23;;;;;;;68.25;33.20;;;;;;;-143.98;100.00;68091.63;5036639;28;20375;-80
2021/04/19 04:00:00;;;;;;;64.88;34.47;;;;;;;-143.98;100.00;68091.63;5036985;28;20135;-80
2021/04/19 04:02:29;;;;;;;66.45;35.13;;;;;;;-143.98;100.00;68091.63;5038273;28;20134;-80
2021/04/19 04:04:57;;;;;;;65.60;33.40;;;;;;;-143.98;100.00;68091.63;5037307;28;20190;-80
2021/04/19 04:07:27;;;;;;;64.28;33.67;;;;;;;-143.98;100.00;68091.63;5037632;28;20140;-80
2021/04/19 04:09:54;;;;;;;62.55;34.28;;;;;;;-143.98;100.00;68091.63;5036917;28;20530;-80
2021/04/19 04:12:29;;;;;;;64.70;32.83;;;;;;;-143.98;100.00;68091.63;5022647;28;20364;-80
2021/04/19 04:14:58;;;;;;;65.65;36.47;;;;;;;-143.98;100.00;68091.63;5037606;28;20057;-80
2021/04/19 04:17:28;;;;;;;118.13;37.80;;;;;;;-143.98;100.00;68091.63;5063146;28;20116;-80
2021/04/19 04:19:55;;;;;;;59.47;32.38;;;;;;;-143.98;100.00;68091.63;5063119;28;20064;-80
2021/04/19 04:22:22;;;;;;;84.55;36.58;;;;;;;-143.98;100.00;68091.63;5057281;28;20340;-80
2021/04/19 04:24:50;;;;;;;72.13;34.65;;;;;;;-143.98;100.00;68091.63;5038371;28;20049;-81
2021/04/19 04:27:19;;;;;;;60.20;33.45;;;;;;;-143.98;100.00;68091.63;5023851;28;20061;-80
2021/04/19 04:29:47;;;;;;;63.13;34.00;;;;;;;-143.98;100.00;68091.63;5033828;28;20061;-81
2021/04/19 04:32:13;;;;;;;65.40;35.05;;;;;;;-143.98;100.00;68091.63;5043165;28;20074;-80
2021/04/19 04:34:40;;;;;;;67.80;33.25;;;;;;;-143.98;100.00;68091.63;5068588;28;20255;-81
2021/04/19 04:37:07;;;;;;;81.88;32.67;;;;;;;-143.98;100.00;68091.63;5052383;28;20048;-81
2021/04/19 04:39:33;;;;;;;56.83;30.90;;;;;;;-143.98;100.00;68091.63;5047235;28;20049;-81
2021/04/19 04:42:02;;;;;;;55.47;32.15;;;;;;;-143.98;100.00;68091.63;5024763;28;20385;-81
2021/04/19 04:44:39;;;;;;;58.95;31.95;;;;;;;-143.98;100.00;68091.63;5024315;28;20459;-80
2021/04/19 04:47:32;;;;;;;73.55;30.77;;;;;;;-143.98;100.00;68091.63;5024124;28;20049;-80
2021/04/19 04:50:14;;;;;;;48.90;29.17;;;;;;;-143.98;100.00;68091.63;5023555;28;20068;-80
2021/04/19 04:53:18;;;;;;;49.65;27.67;;;;;;;-143.98;100.00;68091.63;5022640;28;20053;-79
2021/04/19 04:55:46;;;;;;;45.92;28.55;;;;;;;-143.98;100.00;68091.63;5022931;28;20094;-80
2021/04/19 04:58:16;;;;;;;50.17;28.67;;;;;;;-143.98;100.00;68091.63;5037946;28;20153;-81
2021/04/19 05:00:43;;;;;;;43.38;26.83;;;;;;;-143.98;100.00;68091.63;5036959;28;20061;-80
2021/04/19 05:03:10;;;;;;;48.60;27.67;;;;;;;-143.98;100.00;68091.63;5037460;28;20294;-80
2021/04/19 05:05:38;;;;;;;42.72;25.52;;;;;;;-143.98;100.00;68091.63;5038840;28;20053;-81
2021/04/19 05:08:18;;;;;;;46.35;26.17;;;;;;;-143.98;100.00;68091.63;5038559;28;20095;-80
2021/04/19 05:10:46;;;;;;;48.20;25.33;;;;;;;-143.98;100.00;68091.63;5037614;28;20063;-81
2021/04/19 05:13:17;;;;;;;44.30;25.88;;;;;;;-143.98;100.00;68091.63;5051494;28;20049;-80
2021/04/19 05:15:49;;;;;;;44.72;25.48;;;;;;;-143.98;100.00;68091.63;5018479;28;20056;-80
2021/04/19 05:18:17;;;;;;;40.33;26.33;;;;;;;-143.98;100.00;68091.63;5020138;28;20321;-80
2021/04/19 05:20:48;;;;;;;41.78;27.63;;;;;;;-143.98;100.00;68091.63;5022435;28;20045;-80
2021/04/19 05:23:15;;;;;;;50.80;27.50;;;;;;;-143.98;100.00;68091.63;5058144;28;20052;-80
2021/04/19 05:25:43;;;;;;;40.63;25.65;;;;;;;-143.98;100.00;68091.63;5060498;28;20173;-81
2021/04/19 05:28:09;;;;;;;46.60;24.67;;;;;;;-143.98;100.00;68091.63;5036853;28;20319;-80
2021/04/19 05:30:36;;;;;;;43.15;26.67;;;;;;;-143.98;100.00;68091.63;5031071;28;20057;-80
2021/04/19 05:33:08;;;;;;;38.92;24.67;;;;;;;-143.98;100.00;68091.63;5049685;28;20107;-80
2021/04/19 05:35:35;;;;;;;46.08;25.67;;;;;;;-143.98;100.00;68091.63;5033576;28;20053;-80
2021/04/19 05:38:11;;;;;;;43.92;25.08;;;;;;;-143.98;100.00;68091.63;5048838;28;20083;-80
2021/04/19 05:40:40;;;;;;;42.85;25.10;;;;;;;-143.98;100.00;68091.63;5048611;28;20052;-80
2021/04/19 05:43:07;;;;;;;40.72;23.77;;;;;;;-143.98;100.00;68091.63;5011960;28;20049;-80
2021/04/19 05:45:35;;;;;;;39.42;24.33;;;;;;;-143.98;100.00;68091.63;5010499;28;20053;-80
2021/04/19 05:48:13;;;;;;;38.33;22.70;;;;;;;-143.98;100.00;68091.63;5010427;28;20059;-81
2021/04/19 05:50:48;;;;;;;40.15;22.95;;;;;;;-143.98;100.00;68091.63;5031218;28;20053;-81
2021/04/19 05:53:14;;;;;;;39.10;23.25;;;;;;;-143.98;100.00;68091.63;5034562;28;20036;-80
2021/04/19 05:55:55;;;;;;;36.53;22.20;;;;;;;-143.98;100.00;68091.63;5030984;28;20212;-80
2021/04/19 05:58:39;;;;;;;36.85;22.95;;;;;;;-143.98;100.00;68091.63;5041838;28;20060;-80
2021/04/19 06:01:09;;;;;;;38.25;22.10;;;;;;;-143.98;100.00;68091.63;5040975;28;20113;-80
2021/04/19 06:03:54;;;;;;;39.45;21.00;;;;;;;-143.98;100.00;68091.63;5013106;28;20286;-80
2021/04/19 06:06:36;;;;;;;39.65;24.88;;;;;;;-143.98;100.00;68091.63;5033213;28;20212;-80
2021/04/19 06:09:41;;;;;;;35.88;21.98;;;;;;;-143.98;100.00;68091.63;5033692;28;20146;-82
2021/04/19 06:12:16;;;;;;;39.35;21.58;;;;;;;-143.98;100.00;68091.63;5048248;28;20170;-80
2021/04/19 06:14:44;;;;;;;36.35;22.23;;;;;;;-143.98;100.00;68091.63;5032411;28;20064;-80
2021/04/19 06:17:20;;;;;;;37.78;22.42;;;;;;;-143.98;100.00;68091.63;5017368;28;20089;-81
2021/04/19 06:19:51;;;;;;;33.50;20.73;;;;;;;-143.98;100.00;68091.63;4982855;28;20063;-80
2021/04/19 06:22:18;;;;;;;36.22;20.50;;;;;;;-143.98;100.00;68091.63;5032633;28;20405;-81
2021/04/19 06:24:46;;;;;;;35.10;19.33;;;;;;;-143.98;100.00;68091.63;5031508;28;20116;-81
2021/04/19 06:27:29;;;;;;;30.83;20.27;;;;;;;-143.98;100.00;68091.63;5033883;28;20064;-81
2021/04/19 06:29:55;;;;;;;43.28;20.63;;;;;;;-143.98;100.00;68091.63;5056957;28;20048;-81
2021/04/19 06:32:24;;;;;;;33.38;19.52;;;;;;;-143.98;100.00;68091.63;5036756;28;20143;-81
2021/04/19 06:34:53;;;;;;;31.48;20.23;;;;;;;-143.98;100.00;68091.63;5053251;28;20064;-81
2021/04/19 06:37:23;;;;;;;32.80;18.35;;;;;;;-143.98;100.00;68091.63;5038858;28;20297;-79
2021/04/19 06:40:02;;;;;;;30.45;19.42;;;;;;;-143.98;100.00;68091.63;5016732;28;20096;-80
2021/04/19 06:42:35;;;;;;;29.05;18.10;;;;;;;-143.98;100.00;68091.63;5018086;28;20072;-81
2021/04/19 06:45:15;;;;;;;28.95;18.48;;;;;;;-143.98;100.00;68091.63;5032895;28;20445;-81
2021/04/19 06:47:44;;;;;;;27.38;17.20;;;;;;;-143.98;100.00;68091.63;5019495;28;20313;-81
2021/04/19 06:50:11;;;;;;;28.35;17.80;;;;;;;-143.98;100.00;68091.63;5031087;28;20395;-81
2021/04/19 06:52:47;;;;;;;28.08;16.85;;;;;;;-143.98;100.00;68091.63;5013225;28;20117;-80
2021/04/19 06:55:22;;;;;;;34.72;19.77;;;;;;;-143.98;100.00;68091.63;5042053;28;20060;-81
2021/04/19 06:57:54;;;;;;;31.90;19.85;;;;;;;-143.98;100.00;68091.63;5057034;28;20053;-81
2021/04/19 07:00:23;;;;;;;35.00;19.15;;;;;;;-143.98;100.00;68091.63;5057280;28;20055;-80
2021/04/19 07:02:53;;;;;;;38.47;20.20;;;;;;;-143.98;100.00;68091.63;5018043;28;20328;-80
2021/04/19 07:05:25;;;;;;;31.23;20.17;;;;;;;-143.98;100.00;68091.63;5031417;28;20067;-82
2021/04/19 07:07:58;;;;;;;34.65;20.27;;;;;;;-143.98;100.00;68091.63;5031440;28;20061;-81
2021/04/19 07:10:32;;;;;;;32.42;20.33;;;;;;;-143.98;100.00;68091.63;5031724;28;20391;-81
2021/04/19 07:13:00;;;;;;;35.63;19.52;;;;;;;-143.98;100.00;68091.63;5048664;28;20049;-81
2021/04/19 07:15:32;;;;;;;31.90;18.35;;;;;;;-143.98;100.00;68091.63;5049749;28;20053;-81
2021/04/19 07:18:05;;;;;;;26.98;17.25;;;;;;;-143.98;100.00;68091.63;5050045;28;20390;-81
2021/04/19 07:20:35;;;;;;;31.67;18.00;;;;;;;-143.98;100.00;68091.63;5051700;28;20080;-81
2021/04/19 07:23:02;;;;;;;27.88;15.75;;;;;;;-143.98;100.00;68091.63;5048165;28;20356;-81
2021/04/19 07:25:31;;;;;;;27.45;16.27;;;;;;;-143.98;100.00;68091.63;5048457;28;20574;-79
2021/04/19 07:28:04;;;;;;;23.52;15.93;;;;;;;-143.98;100.00;68091.63;5030092;28;20091;-80
2021/04/19 07:30:31;;;;;;;28.67;17.25;;;;;;;-143.98;100.00;68091.63;5048048;28;20060;-80
2021/04/19 07:32:57;;;;;;;26.75;16.30;;;;;;;-143.98;100.00;68091.63;5028311;28;20071;-80
2021/04/19 07:35:31;;;;;;;25.33;16.58;;;;;;;-143.98;100.00;68091.63;5051941;28;20075;-81
2021/04/19 07:38:05;;;;;;;22.05;15.02;;;;;;;-143.98;100.00;68091.63;5060671;28;20080;-80
2021/04/19 07:40:42;;;;;;;27.30;15.53;;;;;;;-143.98;100.00;68091.63;5039900;28;20056;-81
2021/04/19 07:43:20;;;;;;;33.50;17.48;;;;;;;-143.98;100.00;68091.63;5030622;28;20084;-80
2021/04/19 07:46:01;;;;;;;27.00;15.15;;;;;;;-143.98;100.00;68091.63;5011119;28;20053;-82
2021/04/19 07:48:40;;;;;;;26.08;14.82;;;;;;;-143.98;100.00;68091.63;5036424;28;20053;-83
2021/04/19 07:51:29;;;;;;;29.33;16.55;;;;;;;-143.98;100.00;68091.63;5052932;28;20220;-81
2021/04/19 07:54:10;;;;;;;47.03;18.13;;;;;;;-143.98;100.00;68091.63;5047685;28;20049;-80
2021/04/19 07:57:07;;;;;;;21.67;15.88;;;;;;;-143.98;100.00;68091.63;5028556;28;20049;-80
2021/04/19 07:59:38;;;;;;;22.88;14.95;;;;;;;-143.98;100.00;68091.63;5016437;28;20071;-80
2021/04/19 08:02:11;;;;;;;24.85;13.50;;;;;;;-143.98;100.00;68091.63;5044691;28;20052;-80
2021/04/19 08:05:07;;;;;;;24.02;15.25;;;;;;;-143.98;100.00;68091.63;5032645;28;20167;-81
2021/04/19 08:07:35;;;;;;;21.35;14.50;;;;;;;-143.98;100.00;68091.63;5012284;28;20072;-81
2021/04/19 08:10:11;;;;;;;24.73;14.93;;;;;;;-143.98;100.00;68091.63;5026285;28;20115;-80
2021/04/19 08:12:40;;;;;;;22.17;13.65;;;;;;;-143.98;100.00;68091.63;5048845;28;20056;-80
2021/04/19 08:15:12;;;;;;;21.73;11.55;;;;;;;-143.98;100.00;68091.63;5031805;28;20348;-82
2021/04/19 08:17:39;;;;;;;19.90;11.70;;;;;;;-143.98;100.00;68091.63;5024416;28;20053;-80
2021/04/19 08:20:25;;;;;;;18.20;10.30;;;;;;;-143.98;100.00;68091.63;5047191;28;20073;-81
2021/04/19 08:22:51;;;;;;;19.20;10.98;;;;;;;-143.98;100.00;68091.63;5036543;28;20373;-81
2021/04/19 08:25:22;;;;;;;15.00;10.30;;;;;;;-143.98;100.00;68091.63;5082648;28;20108;-81
2021/04/19 08:28:05;;;;;;;20.60;11.30;;;;;;;-143.98;100.00;68091.63;5081437;28;20050;-81
2021/04/19 08:30:34;;;;;;;18.92;10.77;;;;;;;-143.98;100.00;68091.63;5045904;28;20052;-80
2021/04/19 08:33:06;;;;;;;15.98;10.95;;;;;;;-143.98;100.00;68091.63;5030223;28;20060;-80
2021/04/19 08:35:36;;;;;;;16.80;11.07;;;;;;;-143.98;100.00;68091.63;5035855;28;20336;-81
2021/04/19 08:38:03;;;;;;;17.30;10.48;;;;;;;-143.98;100.00;68091.63;5033134;28;20084;-80
2021/04/19 08:40:33;;;;;;;15.38;11.13;;;;;;;-143.98;100.00;68091.63;5033881;28;20045;-82
2021/04/19 08:42:59;;;;;;;17.35;10.23;;;;;;;-143.98;100.00;68091.63;5049074;28;20379;-81
2021/04/19 08:45:29;;;;;;;15.55;9.65;;;;;;;-143.98;100.00;68091.63;5048199;28;20517;-81
2021/04/19 08:47:59;;;;;;;17.13;10.20;;;;;;;-143.98;100.00;68091.63;5049639;28;20048;-81
2021/04/19 08:50:26;;;;;;;14.27;8.82;;;;;;;-143.98;100.00;68091.63;5031755;28;20059;-81
2021/04/19 08:53:00;;;;;;;12.93;8.50;;;;;;;-143.98;100.00;68091.63;5046784;28;20428;-81
2021/04/19 08:55:27;;;;;;;13.48;9.23;;;;;;;-143.98;100.00;68091.63;5045190;28;20171;-81
2021/04/19 08:57:59;;;;;;;18.33;9.02;;;;;;;-143.98;100.00;68091.63;5033124;28;20041;-81
2021/04/19 09:00:29;;;;;;;14.48;10.27;;;;;;;-143.98;100.00;68091.63;5068349;28;20225;-82
2021/04/19 09:02:59;;;;;;;15.25;9.48;;;;;;;-143.98;100.00;68091.63;5032919;28;20392;-81
2021/04/19 09:05:32;;;;;;;13.02;8.90;;;;;;;-143.98;100.00;68091.63;5051370;28;20095;-81
2021/04/19 09:08:15;;;;;;;15.60;9.98;;;;;;;-143.98;100.00;68091.63;5052910;28;20215;-80
2021/04/19 09:11:06;;;;;;;15.77;10.63;;;;;;;-143.98;100.00;68091.63;5048349;28;20432;-82
2021/04/19 09:14:02;;;;;;;15.68;10.85;;;;;;;-143.98;100.00;68091.63;5048745;28;20143;-81
2021/04/19 09:16:38;;;;;;;14.52;10.05;;;;;;;-143.98;100.00;68091.63;5061807;28;20277;-81
2021/04/19 09:19:06;;;;;;;14.30;10.80;;;;;;;-143.98;100.00;68091.63;5059221;28;20059;-81
2021/04/19 09:21:51;;;;;;;12.85;9.45;;;;;;;-143.98;100.00;68091.63;5045876;28;20230;-81
2021/04/19 09:24:23;;;;;;;26.38;10.75;;;;;;;-143.98;100.00;68091.63;5056890;28;20060;-81
2021/04/19 09:27:01;;;;;;;12.80;9.20;;;;;;;-143.98;100.00;68091.63;5054249;28;20052;-81
2021/04/19 09:29:41;;;;;;;15.43;9.18;;;;;;;-143.98;100.00;68091.63;5034422;28;20065;-81
2021/04/19 09:32:19;;;;;;;25.48;12.50;;;;;;;-143.98;100.00;68091.63;5052082;28;20431;-81
2021/04/19 09:34:58;;;;;;;15.75;9.43;;;;;;;-143.98;100.00;68091.63;5039230;28;20118;-82
2021/04/19 09:37:37;;;;;;;16.38;9.93;;;;;;;-143.98;100.00;68091.63;5039538;28;20313;-80
2021/04/19 09:40:15;;;;;;;12.15;8.93;;;;;;;-143.98;100.00;68091.63;5071107;28;20293;-80
2021/04/19 09:42:58;;;;;;;12.93;9.18;;;;;;;-143.98;100.00;68091.63;5053551;28;20120;-80
2021/04/19 09:45:51;;;;;;;13.45;9.85;;;;;;;-143.98;100.00;68091.63;5075610;28;20052;-81
2021/04/19 09:48:39;;;;;;;13.35;9.18;;;;;;;-143.98;100.00;68091.63;5066599;28;20048;-81
2021/04/19 09:51:23;;;;;;;14.25;9.68;;;;;;;-143.98;100.00;68091.63;5063181;28;20063;-81
2021/04/19 09:54:21;;;;;;;13.55;10.00;;;;;;;-143.98;100.00;68091.63;5057372;28;20359;-79
2021/04/19 09:56:55;;;;;;;13.02;9.82;;;;;;;-143.98;100.00;68091.63;5055715;28;20364;-80
2021/04/19 09:59:29;;;;;;;13.05;8.75;;;;;;;-143.98;100.00;68091.63;5041991;28;20099;-81
2021/04/19 10:01:56;;;;;;;13.68;9.75;;;;;;;-143.98;100.00;68091.63;5056893;28;20048;-80
2021/04/19 10:04:22;;;;;;;13.85;10.18;;;;;;;-143.98;100.00;68091.63;5042546;28;20111;-81
2021/04/19 10:07:00;;;;;;;16.75;11.30;;;;;;;-143.98;100.00;68091.63;5073419;28;20088;-81
2021/04/19 10:09:29;;;;;;;15.52;10.75;;;;;;;-143.98;100.00;68091.63;5047599;28;20056;-82
2021/04/19 10:12:00;;;;;;;14.68;10.02;;;;;;;-143.98;100.00;68091.63;5063661;28;20152;-81
2021/04/19 10:14:35;;;;;;;19.88;12.32;;;;;;;-143.98;100.00;68091.63;5046102;28;20065;-79
2021/04/19 10:17:27;;;;;;;17.73;9.90;;;;;;;-143.98;100.00;68091.63;5038925;28;20134;-82
2021/04/19 10:19:55;;;;;;;16.95;10.73;;;;;;;-143.98;100.00;68091.63;5041518;28;20075;-82
2021/04/19 10:22:22;;;;;;;14.55;9.90;;;;;;;-143.98;100.00;68091.63;5042071;28;20063;-80
2021/04/19 10:24:50;;;;;;;16.67;10.10;;;;;;;-143.98;100.00;68091.63;5040097;28;20226;-81
2021/04/19 10:27:28;;;;;;;14.75;10.13;;;;;;;-143.98;100.00;68091.63;5036758;28;20213;-80
2021/04/19 10:30:08;;;;;;;16.05;10.45;;;;;;;-143.98;100.00;68091.63;5030181;28;20060;-82
2021/04/19 10:32:35;;;;;;;13.50;10.07;;;;;;;-143.98;100.00;68091.63;5014910;28;20130;-81
2021/04/19 10:35:02;;;;;;;17.75;11.02;;;;;;;-143.98;100.00;68091.63;5031347;28;20045;-82
2021/04/19 10:37:31;;;;;;;16.52;10.45;;;;;;;-143.98;100.00;68091.63;5014221;28;20054;-82
2021/04/19 10:40:10;;;;;;;14.65;10.27;;;;;;;-143.98;100.00;68091.63;5042860;28;20144;-82
2021/04/19 10:42:36;;;;;;;16.13;10.15;;;;;;;-143.98;100.00;68091.63;5005289;28;20109;-80
2021/04/19 10:45:09;;;;;;;15.73;10.23;;;;;;;-143.98;100.00;68091.63;5012718;28;20064;-80
2021/04/19 10:47:37;;;;;;;16.13;10.10;;;;;;;-143.98;100.00;68091.63;5027826;28;20057;-81
2021/04/19 10:50:05;;;;;;;18.77;11.98;;;;;;;-143.98;100.00;68091.63;5015449;28;20057;-81
2021/04/19 10:52:31;;;;;;;14.75;10.13;;;;;;;-143.98;100.00;68091.63;5023168;28;20434;-81
2021/04/19 10:55:13;;;;;;;16.52;10.68;;;;;;;-143.98;100.00;68091.63;5017185;28;20071;-81
2021/04/19 10:57:39;;;;;;;15.05;10.48;;;;;;;-143.98;100.00;68091.63;5024911;28;20109;-80
2021/04/19 11:00:10;;;;;;;17.60;11.30;;;;;;;-143.98;100.00;68091.63;5050866;28;20147;-82
2021/04/19 11:02:37;;;;;;;16.15;10.43;;;;;;;-143.98;100.00;68091.63;5041615;28;20053;-82
2021/04/19 11:05:05;;;;;;;15.65;11.10;;;;;;;-143.98;100.00;68091.63;5064751;28;20258;-83
2021/04/19 11:07:38;;;;;;;19.48;12.50;;;;;;;-143.98;100.00;68091.63;5071050;28;20044;-82
2021/04/19 11:10:16;;;;;;;16.20;11.68;;;;;;;-143.98;100.00;68091.63;5055425;28;20100;-82
2021/04/19 11:13:07;;;;;;;18.27;11.60;;;;;;;-143.98;100.00;68091.63;5086999;28;20097;-82
2021/04/19 11:15:40;;;;;;;17.13;11.65;;;;;;;-143.98;100.00;68091.63;5056289;28;20063;-81
2021/04/19 11:18:29;;;;;;;14.75;10.23;;;;;;;-143.98;100.00;68091.63;5038515;28;20068;-81
2021/04/19 11:20:56;;;;;;;20.95;12.13;;;;;;;-143.98;100.00;68091.63;5060536;28;20278;-80